Audubon, Iowa
Current Conditions -  °F | °C
As of 5:35 AM on Thursday 27 Nov 2014 (Local Time) from KADU Reporting Station
Clear Clear  
Wind Chill: -2°   Ceiling: Unl
Heat Index:   Visibility: 10mi
Dew Point: -2°   Wind: 5mph
Humidity: 67%   Direction: 350°N
Pressure: 30.48"   Gusts: NA
Location:  41.72°N, 94.93°W
Report Text: KADU 271135Z AUTO 35004KT 10SM CLR M14/M19 A3048 RMK AO2
Loading
Personal Weather Stations






























Interactive Weather Map New forecast layout! Learn more

10-Day Weather Forecast

Advertisements
Track Severe Weather on mobile